Time;durP1;ratioP1;P1;durP2;ratioP2;P2;SDS_P1;SDS_P2;PMS_P1;PMS_P2;Temp;Humidity;BMP_temperature;BMP_pressure;BME280_temperature;BME280_humidity;BME280_pressure;Samples;Min_cycle;Max_cycle;Signal;HPM_P1;HPM_P2
2023/12/01 07:57:11;;;;;;;9.55;3.72;;;;;;;1.19;100.00;97276.94;4499485;31;132631;-73
2023/12/01 07:59:39;;;;;;;9.63;4.55;;;;;;;1.19;100.00;97276.94;4495215;32;20156;-73
2023/12/01 08:02:09;;;;;;;11.93;5.62;;;;;;;0.77;100.00;97274.03;4495876;31;20100;-74
2023/12/01 08:04:37;;;;;;;11.35;5.57;;;;;;;0.78;100.00;97291.16;4493416;32;20118;-74
2023/12/01 08:07:04;;;;;;;7.72;4.43;;;;;;;0.75;100.00;97298.31;4495118;32;20141;-74
2023/12/01 08:09:32;;;;;;;10.00;5.57;;;;;;;0.84;100.00;97321.66;4495423;32;20088;-74
2023/12/01 08:12:03;;;;;;;9.50;5.65;;;;;;;0.85;100.00;97294.94;4495624;31;20096;-74
2023/12/01 08:14:31;;;;;;;9.23;5.18;;;;;;;0.75;100.00;97301.69;4486459;31;20085;-74
2023/12/01 08:16:59;;;;;;;13.90;5.55;;;;;;;0.85;100.00;97292.38;4495143;31;20100;-74
2023/12/01 08:19:27;;;;;;;14.98;6.82;;;;;;;0.95;100.00;97289.09;4492800;31;20521;-74
2023/12/01 08:21:55;;;;;;;15.10;7.03;;;;;;;1.00;100.00;97287.00;4490126;32;20104;-74
2023/12/01 08:24:25;;;;;;;14.10;6.35;;;;;;;0.99;100.00;97281.03;4496186;32;20148;-75
2023/12/01 08:27:00;;;;;;;19.98;6.82;;;;;;;1.10;100.00;97300.03;4495371;32;20108;-74
2023/12/01 08:29:29;;;;;;;17.05;8.15;;;;;;;1.10;100.00;97305.19;4490362;31;20127;-74
2023/12/01 08:32:00;;;;;;;20.73;9.57;;;;;;;1.15;100.00;97297.94;4492313;31;20088;-75
2023/12/01 08:34:29;;;;;;;19.52;9.45;;;;;;;1.20;100.00;97295.84;4489535;32;20092;-75
2023/12/01 08:36:57;;;;;;;16.25;7.00;;;;;;;1.15;100.00;97298.78;4493805;31;20131;-75
2023/12/01 08:39:24;;;;;;;11.23;5.85;;;;;;;1.16;100.00;97305.56;4493418;31;20114;-75
2023/12/01 08:41:53;;;;;;;11.25;5.45;;;;;;;1.26;100.00;97312.59;4494253;32;20092;-75
2023/12/01 08:44:22;;;;;;;11.77;6.22;;;;;;;1.29;100.00;97309.78;4493260;32;20135;-74
2023/12/01 08:46:53;;;;;;;16.87;7.75;;;;;;;1.33;100.00;97311.22;4489738;31;20440;-74
2023/12/01 08:49:23;;;;;;;22.23;10.38;;;;;;;1.45;100.00;97305.13;4491601;32;20103;-73
2023/12/01 08:51:55;;;;;;;18.27;9.45;;;;;;;1.50;100.00;97308.19;4494181;31;20092;-75
2023/12/01 08:54:24;;;;;;;17.87;9.03;;;;;;;1.66;100.00;97304.44;4493874;32;20087;-74
2023/12/01 08:56:53;;;;;;;12.93;6.78;;;;;;;1.59;100.00;97302.31;4494189;32;20108;-75
2023/12/01 08:59:22;;;;;;;13.75;5.47;;;;;;;1.59;100.00;97307.50;4481235;32;20498;-75
2023/12/01 09:01:50;;;;;;;11.05;6.15;;;;;;;1.64;100.00;97314.06;4494383;31;21076;-75
2023/12/01 09:04:18;;;;;;;19.85;9.20;;;;;;;1.65;100.00;97313.09;4494103;31;20096;-76
2023/12/01 09:06:46;;;;;;;11.85;5.65;;;;;;;1.78;100.00;97321.56;4491477;31;20101;-75
2023/12/01 09:09:13;;;;;;;10.38;5.55;;;;;;;1.90;100.00;97320.63;4479576;32;20096;-75
2023/12/01 09:11:40;;;;;;;14.43;7.65;;;;;;;1.88;100.00;97330.25;4479128;32;20172;-75
2023/12/01 09:14:08;;;;;;;10.15;5.80;;;;;;;1.85;100.00;97322.75;4483596;32;20529;-76
2023/12/01 09:16:36;;;;;;;9.20;5.68;;;;;;;1.94;100.00;97316.88;4483998;32;20100;-76
2023/12/01 09:19:04;;;;;;;14.00;6.75;;;;;;;1.90;100.00;97312.88;4483036;32;20162;-75
2023/12/01 09:21:35;;;;;;;13.85;7.45;;;;;;;2.03;100.00;97322.25;4483034;32;20096;-75
2023/12/01 09:24:04;;;;;;;11.40;6.18;;;;;;;2.11;100.00;97312.97;4483567;32;20092;-77
2023/12/01 09:26:32;;;;;;;13.50;6.03;;;;;;;2.13;100.00;97313.69;4484536;32;20626;-75
2023/12/01 09:29:01;;;;;;;10.88;5.72;;;;;;;2.19;100.00;97304.59;4485021;32;20104;-75
2023/12/01 09:31:30;;;;;;;14.43;6.20;;;;;;;2.01;100.00;97300.88;4483507;32;20131;-75
2023/12/01 09:34:00;;;;;;;12.20;6.43;;;;;;;1.91;100.00;97299.03;4483139;32;20494;-74
2023/12/01 09:36:27;;;;;;;17.55;6.97;;;;;;;1.85;100.00;97294.34;4483665;32;20653;-73
2023/12/01 09:38:57;;;;;;;17.85;8.43;;;;;;;1.82;100.00;97289.41;4483611;32;20156;-75
2023/12/01 09:41:24;;;;;;;13.60;6.47;;;;;;;1.87;100.00;97301.97;4484367;32;20481;-74
2023/12/01 09:43:51;;;;;;;11.40;6.15;;;;;;;2.08;100.00;97302.06;4483759;32;20167;-73
2023/12/01 09:46:35;;;;;;;10.80;5.22;;;;;;;2.16;100.00;97294.50;4482205;32;20096;-73
2023/12/01 09:49:06;;;;;;;9.95;5.43;;;;;;;2.01;100.00;97280.22;4484289;32;20084;-74
2023/12/01 09:51:36;;;;;;;13.52;5.72;;;;;;;1.73;100.00;97259.16;4483413;32;20152;-73
2023/12/01 09:54:04;;;;;;;14.98;6.05;;;;;;;1.85;100.00;97255.59;4482845;32;20557;-72
2023/12/01 09:56:32;;;;;;;9.57;5.70;;;;;;;1.68;100.00;97264.66;4483011;32;20627;-73
2023/12/01 09:59:02;;;;;;;22.70;7.22;;;;;;;1.56;100.00;97263.00;4484819;32;20112;-72
2023/12/01 10:01:30;;;;;;;11.18;5.75;;;;;;;1.28;100.00;97266.88;4484606;32;20157;-72
2023/12/01 10:04:00;;;;;;;20.37;7.65;;;;;;;1.35;100.00;97273.25;4484369;32;20096;-72
2023/12/01 10:06:29;;;;;;;17.67;8.15;;;;;;;1.39;100.00;97279.78;4483407;32;21871;-73
2023/12/01 10:08:57;;;;;;;14.63;6.72;;;;;;;1.26;100.00;97273.91;4483844;32;20127;-72
2023/12/01 10:11:26;;;;;;;16.90;7.60;;;;;;;1.37;100.00;97263.59;4478772;32;20092;-73
2023/12/01 10:13:53;;;;;;;16.40;8.93;;;;;;;1.47;100.00;97264.56;4482471;32;20104;-73
2023/12/01 10:16:22;;;;;;;19.33;9.95;;;;;;;1.35;100.00;97252.59;4482490;32;20515;-72
2023/12/01 10:18:56;;;;;;;23.30;7.28;;;;;;;1.30;100.00;97244.38;4467040;32;20164;-72
2023/12/01 10:21:43;;;;;;;10.27;4.90;;;;;;;1.29;100.00;97234.97;4482325;32;20119;-73
2023/12/01 10:24:22;;;;;;;16.67;7.85;;;;;;;1.18;100.00;97244.38;4482570;32;20106;-72
2023/12/01 10:26:54;;;;;;;14.95;5.90;;;;;;;1.10;100.00;97233.81;4484849;32;20099;-73
2023/12/01 10:29:33;;;;;;;8.50;4.18;;;;;;;1.12;100.00;97234.53;4482286;32;20486;-71
2023/12/01 10:32:03;;;;;;;12.48;5.70;;;;;;;1.14;100.00;97230.06;4484186;32;20122;-73
2023/12/01 10:34:31;;;;;;;14.95;5.60;;;;;;;1.04;100.00;97229.09;4484520;32;20614;-73
2023/12/01 10:37:00;;;;;;;9.02;5.15;;;;;;;1.20;100.00;97237.34;4484733;32;20109;-73
2023/12/01 10:39:30;;;;;;;13.25;6.93;;;;;;;1.11;100.00;97234.63;4470223;32;20130;-72
2023/12/01 10:41:59;;;;;;;10.63;5.40;;;;;;;1.04;100.00;97229.91;4477968;32;20138;-74
2023/12/01 10:44:35;;;;;;;6.35;2.90;;;;;;;1.10;100.00;97223.47;4483714;32;20092;-72
2023/12/01 10:47:06;;;;;;;2.55;2.00;;;;;;;1.22;100.00;97227.72;4476943;32;20118;-71
2023/12/01 10:49:35;;;;;;;6.82;3.65;;;;;;;1.19;100.00;97216.81;4482140;32;20124;-73
2023/12/01 10:52:03;;;;;;;6.82;3.75;;;;;;;1.06;100.00;97214.34;4482035;32;20115;-72
2023/12/01 10:54:31;;;;;;;7.45;2.92;;;;;;;1.08;100.00;97214.25;4469019;32;20155;-73
2023/12/01 10:57:30;;;;;;;10.30;4.10;;;;;;;1.02;100.00;97220.69;4462114;32;20181;-71
2023/12/01 11:00:00;;;;;;;8.65;4.05;;;;;;;0.99;100.00;97215.75;4479708;32;20386;-72
2023/12/01 11:02:30;;;;;;;11.27;3.47;;;;;;;0.84;100.00;97213.38;4484142;32;20453;-72
2023/12/01 11:04:58;;;;;;;21.23;5.05;;;;;;;0.83;100.00;97201.44;4483835;32;20395;-73
2023/12/01 11:07:47;;;;;;;8.20;3.87;;;;;;;0.86;100.00;97193.47;4468913;32;20112;-72
2023/12/01 11:10:42;;;;;;;7.57;3.55;;;;;;;0.79;100.00;97189.72;4413869;32;20106;-73
2023/12/01 11:13:26;;;;;;;4.85;3.37;;;;;;;0.86;100.00;97195.22;4415356;32;20098;-72
2023/12/01 11:15:57;;;;;;;9.45;4.55;;;;;;;0.85;100.00;97199.56;4419183;32;20305;-73
2023/12/01 11:18:25;;;;;;;7.62;3.92;;;;;;;0.92;100.00;97193.94;4406348;32;20793;-72
2023/12/01 11:20:54;;;;;;;6.95;3.35;;;;;;;0.89;100.00;97194.97;4419371;32;20101;-72
2023/12/01 11:23:24;;;;;;;7.10;4.00;;;;;;;0.79;100.00;97194.03;4417275;32;20110;-72
2023/12/01 11:25:56;;;;;;;9.77;3.60;;;;;;;0.81;100.00;97197.31;4419081;32;20685;-72
2023/12/01 11:31:18;;;;;;;7.25;4.53;;;;;;;0.66;100.00;97176.91;4417351;32;20126;-72
2023/12/01 11:33:53;;;;;;;4.95;3.37;;;;;;;0.66;100.00;97184.62;4419143;32;20110;-72
2023/12/01 11:36:23;;;;;;;5.95;3.22;;;;;;;0.70;100.00;97187.81;4418760;32;20135;-72
2023/12/01 11:41:42;;;;;;;10.05;4.82;;;;;;;0.62;100.00;97196.13;4417781;32;20138;-75
2023/12/01 11:44:40;;;;;;;10.27;4.18;;;;;;;0.67;100.00;97195.78;4413890;32;21044;-74
2023/12/01 11:47:14;;;;;;;7.00;4.10;;;;;;;0.72;100.00;97191.09;4389198;32;20593;-75
2023/12/01 11:49:43;;;;;;;11.00;3.87;;;;;;;0.80;100.00;97177.62;4418831;32;20125;-76
2023/12/01 11:52:19;;;;;;;6.97;4.20;;;;;;;0.80;100.00;97175.06;4432886;32;20163;-75
2023/12/01 11:54:48;;;;;;;5.60;3.70;;;;;;;0.77;100.00;97180.44;4422957;32;20118;-75
2023/12/01 11:57:18;;;;;;;7.35;4.97;;;;;;;0.70;100.00;97187.81;4405702;32;20124;-75
2023/12/01 11:59:47;;;;;;;7.70;3.90;;;;;;;0.75;100.00;97180.56;4414432;32;20412;-77
2023/12/01 12:02:15;;;;;;;9.65;3.28;;;;;;;0.79;100.00;97181.97;4402050;32;20255;-76
2023/12/01 12:04:49;;;;;;;5.15;2.97;;;;;;;0.78;100.00;97176.94;4403550;32;20114;-76
2023/12/01 12:07:16;;;;;;;7.35;3.53;;;;;;;0.79;100.00;97179.41;4410043;32;20148;-76
2023/12/01 12:09:46;;;;;;;5.25;2.75;;;;;;;0.87;100.00;97178.81;4402739;32;20180;-76
2023/12/01 12:12:14;;;;;;;5.00;2.33;;;;;;;0.86;100.00;97170.28;4416801;32;20573;-75
2023/12/01 12:14:43;;;;;;;5.75;3.08;;;;;;;0.88;100.00;97183.03;4405603;32;20124;-76
2023/12/01 12:17:11;;;;;;;6.70;2.65;;;;;;;0.85;100.00;97178.94;4405915;32;20113;-76
2023/12/01 12:19:43;;;;;;;3.47;2.12;;;;;;;0.92;100.00;97173.31;4401147;32;20440;-76
2023/12/01 12:22:19;;;;;;;3.92;2.28;;;;;;;1.01;100.00;97167.44;4402873;32;20130;-76
2023/12/01 12:24:47;;;;;;;4.62;2.17;;;;;;;1.06;100.00;97162.78;4444443;32;20109;-77
2023/12/01 12:27:15;;;;;;;3.65;2.22;;;;;;;1.02;100.00;97158.78;4440670;32;20105;-74
2023/12/01 12:29:46;;;;;;;6.25;2.83;;;;;;;1.10;100.00;97160.78;4442261;32;20096;-75
2023/12/01 12:32:13;;;;;;;5.87;3.50;;;;;;;1.16;100.00;97160.31;4449976;32;20105;-75
2023/12/01 12:34:41;;;;;;;6.15;3.67;;;;;;;1.26;100.00;97165.56;4447561;32;20089;-74
2023/12/01 12:37:13;;;;;;;6.65;3.67;;;;;;;1.24;100.00;97179.41;4449736;32;20115;-74
2023/12/01 12:39:43;;;;;;;3.87;2.53;;;;;;;1.34;100.00;97173.53;4449992;32;20116;-74
2023/12/01 12:42:15;;;;;;;5.45;3.72;;;;;;;1.44;100.00;97169.31;4451459;32;20150;-75
2023/12/01 12:44:44;;;;;;;7.80;3.58;;;;;;;1.36;100.00;97171.66;4453411;32;20119;-74
2023/12/01 12:47:12;;;;;;;7.78;3.53;;;;;;;1.36;100.00;97172.50;4449126;32;20484;-75
2023/12/01 12:49:40;;;;;;;5.05;3.22;;;;;;;1.37;100.00;97174.13;4445550;32;20101;-75
2023/12/01 12:52:07;;;;;;;4.25;2.62;;;;;;;1.29;100.00;97171.31;4449231;32;20134;-74
2023/12/01 12:54:36;;;;;;;6.12;2.30;;;;;;;1.38;100.00;97180.94;4447085;32;20123;-75
2023/12/01 12:57:06;;;;;;;4.70;2.25;;;;;;;1.50;100.00;97171.41;4480324;32;20100;-75
2023/12/01 12:59:33;;;;;;;9.85;2.53;;;;;;;1.53;100.00;97173.75;4482120;32;20120;-74
2023/12/01 13:02:04;;;;;;;4.15;2.00;;;;;;;1.74;100.00;97173.84;4482153;32;20977;-76
2023/12/01 13:04:31;;;;;;;3.20;1.83;;;;;;;1.64;100.00;97161.78;4481514;32;20570;-75
2023/12/01 13:06:59;;;;;;;5.03;2.90;;;;;;;1.62;100.00;97161.06;4475816;32;20089;-76
2023/12/01 13:09:26;;;;;;;5.55;2.95;;;;;;;1.54;100.00;97151.34;4472324;32;20099;-74
2023/12/01 13:11:54;;;;;;;3.28;2.30;;;;;;;1.54;100.00;97159.09;4480104;32;20573;-74
2023/12/01 13:14:21;;;;;;;5.05;2.72;;;;;;;1.54;100.00;97143.59;4481567;32;20092;-74
2023/12/01 13:16:49;;;;;;;3.78;2.42;;;;;;;1.65;100.00;97146.16;4481861;32;20149;-74
2023/12/01 13:19:25;;;;;;;3.60;2.50;;;;;;;1.63;100.00;97150.63;4481066;32;20184;-75
2023/12/01 13:21:53;;;;;;;8.15;3.05;;;;;;;1.49;100.00;97151.72;4483766;32;20103;-75
2023/12/01 13:24:29;;;;;;;4.55;2.83;;;;;;;1.46;100.00;97151.94;4484363;32;20100;-75
2023/12/01 13:26:57;;;;;;;6.75;3.05;;;;;;;1.42;100.00;97166.84;4483454;32;20096;-74
2023/12/01 13:29:24;;;;;;;7.57;3.20;;;;;;;1.36;100.00;97167.34;4477344;32;20130;-74
2023/12/01 13:31:51;;;;;;;8.98;2.65;;;;;;;1.35;100.00;97175.19;4483629;32;20187;-74
2023/12/01 13:34:19;;;;;;;4.10;1.85;;;;;;;1.34;100.00;97173.53;4484266;32;20092;-74
2023/12/01 13:36:48;;;;;;;3.25;1.87;;;;;;;1.23;100.00;97172.63;4484236;32;20135;-75
2023/12/01 13:39:16;;;;;;;3.40;1.92;;;;;;;1.12;100.00;97172.63;4483532;32;20157;-76
2023/12/01 13:41:45;;;;;;;1.50;1.00;;;;;;;1.11;100.00;97162.44;4483291;32;20096;-75
2023/12/01 13:44:13;;;;;;;2.62;1.70;;;;;;;1.16;100.00;97150.81;4483834;32;20096;-73
2023/12/01 13:46:43;;;;;;;3.42;1.83;;;;;;;1.16;100.00;97150.81;4483107;32;20236;-74
2023/12/01 13:49:16;;;;;;;3.62;2.12;;;;;;;1.25;100.00;97149.28;4483046;32;20123;-74
2023/12/01 13:51:45;;;;;;;5.62;2.58;;;;;;;1.32;100.00;97160.75;4484056;32;20178;-74
2023/12/01 13:54:12;;;;;;;5.72;3.28;;;;;;;1.48;100.00;97169.88;4484450;32;20119;-75
2023/12/01 13:56:40;;;;;;;3.50;2.25;;;;;;;1.37;100.00;97171.53;4482200;32;20412;-75
2023/12/01 13:59:10;;;;;;;5.62;2.65;;;;;;;1.28;100.00;97181.75;4484412;32;20092;-75
2023/12/01 14:01:39;;;;;;;5.20;2.70;;;;;;;1.30;100.00;97180.69;4484498;32;20092;-76
2023/12/01 14:04:07;;;;;;;3.20;2.42;;;;;;;1.29;100.00;97197.13;4471539;32;20825;-75
2023/12/01 14:06:37;;;;;;;2.92;1.95;;;;;;;1.36;100.00;97192.28;4484125;32;20115;-74
2023/12/01 14:09:06;;;;;;;3.15;1.75;;;;;;;1.34;100.00;97202.72;4483613;32;20116;-74
2023/12/01 14:11:34;;;;;;;8.68;1.83;;;;;;;1.39;100.00;97202.38;4484025;32;20167;-73
2023/12/01 14:14:03;;;;;;;4.90;1.33;;;;;;;1.42;100.00;97197.81;4470772;32;20160;-74
2023/12/01 14:16:32;;;;;;;5.62;1.90;;;;;;;1.40;100.00;97193.72;4483645;32;20122;-74
2023/12/01 14:19:01;;;;;;;6.45;3.00;;;;;;;1.34;100.00;97220.78;4484518;32;20122;-73
2023/12/01 14:21:31;;;;;;;7.93;3.35;;;;;;;1.38;100.00;97211.87;4484599;32;20096;-73
2023/12/01 14:23:59;;;;;;;5.93;2.50;;;;;;;1.37;100.00;97194.75;4470869;32;20118;-73
2023/12/01 14:26:29;;;;;;;9.55;4.97;;;;;;;1.38;100.00;97223.97;4484259;32;20112;-73
2023/12/01 14:28:58;;;;;;;9.77;4.22;;;;;;;1.37;100.00;97215.41;4484957;32;20126;-73
2023/12/01 14:31:28;;;;;;;13.65;5.82;;;;;;;1.47;100.00;97215.53;4483192;32;20092;-73
2023/12/01 14:34:00;;;;;;;9.88;4.62;;;;;;;1.33;100.00;97213.19;4475016;32;20115;-73
2023/12/01 14:36:27;;;;;;;7.53;3.67;;;;;;;1.28;100.00;97204.97;4463845;32;20093;-72
2023/12/01 14:38:55;;;;;;;5.65;2.60;;;;;;;1.38;100.00;97198.19;4467815;32;20101;-72
2023/12/01 14:41:26;;;;;;;3.65;2.37;;;;;;;1.32;100.00;97220.09;4472033;32;20106;-73
2023/12/01 14:43:55;;;;;;;4.28;2.35;;;;;;;1.32;100.00;97212.37;4483551;32;20088;-73
2023/12/01 14:46:23;;;;;;;3.95;1.87;;;;;;;1.35;100.00;97211.31;4484094;32;20084;-72
2023/12/01 14:48:51;;;;;;;3.75;2.03;;;;;;;1.27;100.00;97195.59;4483748;32;20093;-72
2023/12/01 14:51:19;;;;;;;3.92;2.50;;;;;;;1.28;100.00;97210.13;4483557;32;20095;-73
2023/12/01 14:53:47;;;;;;;2.87;1.70;;;;;;;1.37;100.00;97217.97;4483762;32;20105;-73
2023/12/01 14:56:15;;;;;;;3.58;2.12;;;;;;;1.41;100.00;97196.16;4474993;32;20096;-73
2023/12/01 14:58:47;;;;;;;3.60;2.67;;;;;;;1.32;100.00;97207.19;4484081;32;20104;-73
2023/12/01 15:01:15;;;;;;;3.53;2.40;;;;;;;1.31;100.00;97200.41;4483269;32;20450;-73
2023/12/01 15:03:44;;;;;;;2.62;1.90;;;;;;;1.31;100.00;97199.59;4484338;32;20747;-72
2023/12/01 15:06:14;;;;;;;3.50;2.37;;;;;;;1.31;100.00;97215.06;4483267;32;20520;-72
2023/12/01 15:08:44;;;;;;;3.87;1.95;;;;;;;1.29;100.00;97191.13;4471150;32;20131;-72
2023/12/01 15:11:11;;;;;;;3.95;2.60;;;;;;;1.32;100.00;97186.56;4468725;32;20819;-72
2023/12/01 15:13:39;;;;;;;3.90;2.35;;;;;;;1.32;100.00;97180.59;4459208;32;20101;-72
2023/12/01 15:16:10;;;;;;;3.90;2.80;;;;;;;1.28;100.00;97200.62;4459129;32;20172;-73
2023/12/01 15:18:38;;;;;;;3.62;2.53;;;;;;;1.32;100.00;97202.03;4460790;32;20101;-72
2023/12/01 15:21:06;;;;;;;6.65;3.00;;;;;;;1.30;100.00;97221.16;4456802;32;20096;-73
2023/12/01 15:23:33;;;;;;;7.00;4.43;;;;;;;1.28;100.00;97226.44;4450323;32;20123;-72
2023/12/01 15:26:03;;;;;;;5.10;2.95;;;;;;;1.24;100.00;97236.16;4465989;32;20131;-73
2023/12/01 15:28:31;;;;;;;4.37;2.85;;;;;;;1.30;100.00;97203.09;4461759;32;20127;-72
2023/12/01 15:30:59;;;;;;;4.90;2.65;;;;;;;1.33;100.00;97234.66;4465769;32;20125;-73
2023/12/01 15:33:28;;;;;;;7.78;2.70;;;;;;;1.35;100.00;97221.63;4455558;32;20109;-72
2023/12/01 15:35:55;;;;;;;7.30;3.55;;;;;;;1.32;100.00;97196.06;4461006;32;20481;-72
2023/12/01 15:38:23;;;;;;;5.75;3.03;;;;;;;1.33;100.00;97208.84;4458002;32;20097;-72
2023/12/01 15:40:51;;;;;;;5.97;3.22;;;;;;;1.24;100.00;97192.31;4465518;32;20536;-72
2023/12/01 15:43:18;;;;;;;7.78;4.00;;;;;;;1.18;100.00;97174.72;4455293;32;20165;-72
2023/12/01 15:45:45;;;;;;;7.07;3.55;;;;;;;1.23;100.00;97193.25;4461369;32;20105;-72
2023/12/01 15:48:13;;;;;;;5.93;2.62;;;;;;;1.14;100.00;97191.38;4452983;32;20398;-72
2023/12/01 15:50:41;;;;;;;6.37;3.20;;;;;;;1.12;100.00;97153.72;4460492;32;20139;-72
2023/12/01 15:53:08;;;;;;;5.37;3.05;;;;;;;1.09;100.00;97156.56;4448847;32;20096;-72
2023/12/01 15:55:37;;;;;;;13.07;3.75;;;;;;;1.02;100.00;97159.59;4455723;32;20165;-72
2023/12/01 15:58:10;;;;;;;7.85;3.90;;;;;;;1.06;100.00;97155.03;4454736;32;20119;-72
2023/12/01 16:00:38;;;;;;;6.30;3.45;;;;;;;1.09;100.00;97165.13;4460026;32;20785;-72
2023/12/01 16:03:09;;;;;;;4.68;2.97;;;;;;;1.04;100.00;97172.38;4463181;32;20139;-72
2023/12/01 16:05:37;;;;;;;4.75;3.03;;;;;;;1.10;100.00;97153.84;4467755;32;20081;-72
2023/12/01 16:08:05;;;;;;;4.97;2.85;;;;;;;0.94;100.00;97149.06;4462636;32;20097;-72
2023/12/01 16:10:33;;;;;;;5.22;3.37;;;;;;;1.03;100.00;97155.25;4466550;32;20317;-72
2023/12/01 16:13:01;;;;;;;4.57;2.60;;;;;;;1.01;100.00;97159.72;4466494;32;20172;-72
2023/12/01 16:15:28;;;;;;;5.43;3.30;;;;;;;0.94;100.00;97159.38;4464621;32;20096;-72
2023/12/01 16:17:55;;;;;;;6.95;3.55;;;;;;;0.95;100.00;97142.94;4457013;32;20513;-72
2023/12/01 16:20:23;;;;;;;7.82;3.72;;;;;;;0.95;100.00;97144.72;4452693;32;20528;-72
2023/12/01 16:22:51;;;;;;;7.30;3.67;;;;;;;0.99;100.00;97156.44;4454250;32;20574;-72
2023/12/01 16:25:19;;;;;;;5.60;3.00;;;;;;;0.93;100.00;97168.03;4454917;32;20147;-72
2023/12/01 16:27:46;;;;;;;8.20;3.53;;;;;;;0.87;100.00;97140.97;4456771;32;20098;-72
2023/12/01 16:30:15;;;;;;;6.35;3.58;;;;;;;0.85;100.00;97150.56;4466624;32;20959;-72
2023/12/01 16:33:02;;;;;;;5.07;3.78;;;;;;;0.92;100.00;97148.34;4454103;32;20148;-72
2023/12/01 16:35:30;;;;;;;9.15;2.80;;;;;;;0.94;100.00;97141.31;4453884;32;20097;-72
2023/12/01 16:38:02;;;;;;;5.85;3.28;;;;;;;1.04;100.00;97154.31;4465060;32;20582;-72
2023/12/01 16:40:29;;;;;;;3.80;2.62;;;;;;;1.02;100.00;97153.62;4455114;32;20158;-72
2023/12/01 16:42:58;;;;;;;4.70;2.90;;;;;;;1.09;100.00;97162.53;4454455;32;20077;-72
2023/12/01 16:45:26;;;;;;;4.62;2.85;;;;;;;1.10;100.00;97142.72;4454365;32;20225;-72
2023/12/01 16:47:54;;;;;;;5.12;3.20;;;;;;;1.21;100.00;97155.59;4455243;32;20101;-72
2023/12/01 16:50:28;;;;;;;8.50;3.15;;;;;;;1.21;100.00;97158.19;4460666;32;20104;-72
2023/12/01 16:52:55;;;;;;;5.10;3.10;;;;;;;1.24;100.00;97133.00;4458348;32;21564;-73
2023/12/01 16:55:25;;;;;;;5.78;1.95;;;;;;;1.33;100.00;97146.94;4460322;32;20124;-72
2023/12/01 16:57:52;;;;;;;5.07;3.70;;;;;;;1.29;100.00;97144.69;4463194;32;20113;-73
2023/12/01 17:00:22;;;;;;;4.87;2.22;;;;;;;1.25;100.00;97108.00;4457727;32;20096;-73
2023/12/01 17:02:50;;;;;;;3.75;1.95;;;;;;;1.38;100.00;97134.50;4454511;32;20111;-73
2023/12/01 17:05:19;;;;;;;5.37;3.10;;;;;;;1.46;100.00;97138.22;4459553;32;20088;-73
2023/12/01 17:07:46;;;;;;;5.60;2.87;;;;;;;1.34;100.00;97109.06;4469843;32;20420;-73
2023/12/01 17:10:14;;;;;;;6.05;3.00;;;;;;;1.35;100.00;97118.44;4469883;32;20116;-73
2023/12/01 17:12:42;;;;;;;3.45;2.45;;;;;;;1.41;100.00;97134.25;4469975;32;20179;-73
2023/12/01 17:15:17;;;;;;;7.20;3.42;;;;;;;1.38;100.00;97133.69;4470008;32;20077;-73
2023/12/01 17:17:45;;;;;;;7.00;3.22;;;;;;;1.38;100.00;97144.81;4462505;32;20093;-73
2023/12/01 17:20:12;;;;;;;3.70;2.53;;;;;;;1.36;100.00;97130.38;4454536;32;20109;-73
2023/12/01 17:22:40;;;;;;;6.53;4.00;;;;;;;1.44;100.00;97137.50;4455148;32;20172;-73
2023/12/01 17:25:09;;;;;;;7.00;4.43;;;;;;;1.36;100.00;97157.03;4454156;32;20096;-73
2023/12/01 17:27:39;;;;;;;7.43;4.30;;;;;;;1.37;100.00;97165.56;4453928;32;20117;-73
2023/12/01 17:30:06;;;;;;;6.50;3.65;;;;;;;1.38;100.00;97164.63;4467119;32;20093;-73
2023/12/01 17:32:35;;;;;;;7.30;4.10;;;;;;;1.32;100.00;97149.63;4442117;32;20123;-73
2023/12/01 17:35:03;;;;;;;8.32;3.95;;;;;;;1.26;100.00;97163.81;4461982;32;20444;-73
2023/12/01 17:37:36;;;;;;;10.10;4.70;;;;;;;1.20;100.00;97159.94;4469592;32;20442;-73
2023/12/01 17:40:04;;;;;;;11.20;6.22;;;;;;;1.29;100.00;97149.84;4460358;32;20519;-73
2023/12/01 17:42:34;;;;;;;7.78;4.95;;;;;;;1.19;100.00;97145.41;4453942;32;20164;-73
2023/12/01 17:45:02;;;;;;;12.32;5.60;;;;;;;1.19;100.00;97145.41;4454142;32;20088;-73
2023/12/01 17:47:30;;;;;;;10.13;6.22;;;;;;;1.16;100.00;97140.47;4453889;32;20500;-73
2023/12/01 17:49:57;;;;;;;10.10;5.18;;;;;;;1.21;100.00;97115.16;4460271;32;20119;-73
2023/12/01 17:52:26;;;;;;;11.40;5.20;;;;;;;1.21;100.00;97106.59;4468083;32;20527;-73
2023/12/01 17:54:55;;;;;;;10.55;5.40;;;;;;;1.25;100.00;97120.91;4469449;32;20112;-73
2023/12/01 17:57:22;;;;;;;8.77;4.70;;;;;;;1.26;100.00;97124.28;4469426;32;20200;-73
2023/12/01 17:59:50;;;;;;;8.73;4.50;;;;;;;1.16;100.00;97140.47;4469601;32;20489;-73
2023/12/01 18:02:17;;;;;;;13.35;5.18;;;;;;;1.17;100.00;97136.16;4469583;32;20093;-73
2023/12/01 18:04:45;;;;;;;7.35;5.05;;;;;;;1.22;100.00;97137.44;4469867;32;20140;-73
2023/12/01 18:07:12;;;;;;;9.00;5.45;;;;;;;1.21;100.00;97116.91;4469591;32;20154;-73
2023/12/01 18:09:40;;;;;;;9.82;4.90;;;;;;;1.15;100.00;97107.91;4469894;32;20101;-73
2023/12/01 18:12:08;;;;;;;8.77;5.15;;;;;;;1.08;100.00;97104.16;4469119;32;20092;-73
2023/12/01 18:14:35;;;;;;;10.20;5.40;;;;;;;1.09;100.00;97108.38;4469528;32;20115;-73
2023/12/01 18:17:02;;;;;;;6.93;4.18;;;;;;;1.16;100.00;97111.31;4453877;32;20105;-73
2023/12/01 18:19:36;;;;;;;10.32;5.45;;;;;;;1.19;100.00;97104.13;4468680;32;20154;-73
2023/12/01 18:22:04;;;;;;;12.25;5.62;;;;;;;1.14;100.00;97095.13;4468658;32;20590;-73
2023/12/01 18:24:31;;;;;;;8.23;4.72;;;;;;;1.19;100.00;97109.28;4468817;32;20142;-73
2023/12/01 18:26:59;;;;;;;15.05;5.22;;;;;;;1.20;100.00;97110.94;4454020;32;20108;-73
2023/12/01 18:29:28;;;;;;;11.45;4.68;;;;;;;1.18;100.00;97133.47;4468651;32;20127;-73
2023/12/01 18:31:56;;;;;;;10.30;5.97;;;;;;;1.18;100.00;97130.88;4468725;32;20159;-73
2023/12/01 18:34:25;;;;;;;7.93;5.30;;;;;;;1.14;100.00;97131.25;4468698;32;20140;-73
2023/12/01 18:36:54;;;;;;;14.63;5.87;;;;;;;1.21;100.00;97140.97;4468634;32;20165;-73
2023/12/01 18:39:27;;;;;;;13.13;5.62;;;;;;;1.18;100.00;97138.62;4453580;32;20112;-73
2023/12/01 18:41:54;;;;;;;9.35;5.45;;;;;;;1.19;100.00;97137.66;4468781;32;20096;-73
2023/12/01 18:44:21;;;;;;;11.12;5.80;;;;;;;1.19;100.00;97140.25;4468637;32;20175;-73
2023/12/01 18:46:49;;;;;;;12.85;6.30;;;;;;;1.29;100.00;97137.78;4468487;32;20150;-73
2023/12/01 18:49:25;;;;;;;13.88;6.20;;;;;;;1.21;100.00;97129.81;4468535;32;20096;-73
2023/12/01 18:51:53;;;;;;;13.38;6.75;;;;;;;1.25;100.00;97113.16;4468783;32;20799;-73
2023/12/01 18:54:21;;;;;;;11.90;7.05;;;;;;;1.17;100.00;97118.13;4468572;32;20096;-73
2023/12/01 18:56:48;;;;;;;14.95;6.25;;;;;;;1.18;100.00;97115.41;4468336;32;20093;-73
2023/12/01 18:59:16;;;;;;;16.83;7.15;;;;;;;1.20;100.00;97117.88;4468397;32;20093;-73
2023/12/01 19:01:43;;;;;;;18.85;9.00;;;;;;;1.17;100.00;97124.06;4468580;32;20088;-73
2023/12/01 19:04:11;;;;;;;11.82;6.22;;;;;;;1.19;100.00;97108.47;4468680;32;20160;-73
2023/12/01 19:06:38;;;;;;;10.40;6.10;;;;;;;1.23;100.00;97121.03;4468599;32;20085;-73
2023/12/01 19:09:06;;;;;;;8.63;5.12;;;;;;;1.29;100.00;97113.72;4468380;32;20104;-73
2023/12/01 19:11:36;;;;;;;14.80;7.12;;;;;;;1.30;100.00;97123.12;4468630;32;20188;-73
2023/12/01 19:14:05;;;;;;;13.05;6.97;;;;;;;1.31;100.00;97135.09;4468573;32;20088;-73
2023/12/01 19:16:34;;;;;;;13.27;6.70;;;;;;;1.30;100.00;97113.63;4466629;32;20182;-73
2023/12/01 19:19:04;;;;;;;14.73;5.53;;;;;;;1.38;100.00;97103.53;4452376;32;20488;-74
2023/12/01 19:21:32;;;;;;;23.95;7.60;;;;;;;1.30;100.00;97110.22;4452877;32;20089;-73
2023/12/01 19:24:00;;;;;;;14.55;7.15;;;;;;;1.29;100.00;97113.72;4452881;32;20199;-73
2023/12/01 19:26:36;;;;;;;17.33;5.28;;;;;;;1.32;100.00;97105.78;4452680;32;20202;-73
2023/12/01 19:29:04;;;;;;;19.52;6.35;;;;;;;1.32;100.00;97105.78;4459577;32;20109;-73
2023/12/01 19:31:37;;;;;;;12.63;6.87;;;;;;;1.29;100.00;97109.41;4468566;32;20088;-74
2023/12/01 19:34:06;;;;;;;20.80;6.60;;;;;;;1.22;100.00;97108.25;4468389;32;20123;-73
2023/12/01 19:36:39;;;;;;;16.85;7.90;;;;;;;1.27;100.00;97100.16;4467943;32;20147;-73
2023/12/01 19:39:07;;;;;;;22.40;7.50;;;;;;;1.23;100.00;97105.53;4467926;32;20163;-74
2023/12/01 19:41:34;;;;;;;38.80;7.75;;;;;;;1.24;100.00;97109.78;4468241;32;20113;-73